createdAt,value
2018-07-17T00:01:22.000Z,4.50
2018-07-17T00:03:57.230Z,5.53
2018-07-17T00:06:30.064Z,4.70
2018-07-17T00:09:03.048Z,4.90
2018-07-17T00:11:38.864Z,4.60
2018-07-17T00:14:25.239Z,5.90
2018-07-17T00:17:08.665Z,6.10
2018-07-17T00:19:44.366Z,5.60
2018-07-17T00:22:21.289Z,5.93
2018-07-17T00:25:04.640Z,7.50
2018-07-17T00:27:38.893Z,7.73
2018-07-17T00:30:48.610Z,7.10
2018-07-17T00:33:21.733Z,6.10
2018-07-17T00:35:54.487Z,5.60
2018-07-17T00:38:40.072Z,5.30
2018-07-17T00:41:40.473Z,5.20
2018-07-17T00:44:18.375Z,4.60
2018-07-17T00:46:57.651Z,4.77
2018-07-17T00:49:36.165Z,4.70
2018-07-17T00:52:19.076Z,4.00
2018-07-17T00:54:55.667Z,4.10
2018-07-17T00:57:29.627Z,3.93
2018-07-17T01:00:20.664Z,4.30
2018-07-17T01:03:04.108Z,4.37
2018-07-17T01:05:46.245Z,4.27
2018-07-17T01:08:26.812Z,5.17
2018-07-17T01:11:29.348Z,5.27
2018-07-17T01:14:46.549Z,7.17
2018-07-17T01:17:37.747Z,7.53
2018-07-17T01:20:18.373Z,8.20
2018-07-17T01:23:13.415Z,7.33
2018-07-17T01:25:45.603Z,8.23
2018-07-17T01:28:20.222Z,8.27
2018-07-17T01:30:58.765Z,7.73
2018-07-17T01:33:30.713Z,5.80
2018-07-17T01:36:21.020Z,6.30
2018-07-17T01:39:00.611Z,5.07
2018-07-17T01:41:33.108Z,4.33
2018-07-17T01:44:06.567Z,4.80
2018-07-17T01:47:03.571Z,5.10
2018-07-17T01:49:44.140Z,6.63
2018-07-17T01:52:18.335Z,6.37
2018-07-17T01:54:50.082Z,6.83
2018-07-17T01:57:22.139Z,7.10
2018-07-17T02:00:12.379Z,7.23
2018-07-17T02:02:45.309Z,4.87
2018-07-17T02:05:20.397Z,4.47
2018-07-17T02:08:04.756Z,4.93
2018-07-17T02:10:44.808Z,3.40
2018-07-17T02:13:19.814Z,4.03
2018-07-17T02:15:53.728Z,4.30
2018-07-17T02:18:25.698Z,4.67
2018-07-17T02:21:04.018Z,4.40
2018-07-17T02:23:47.280Z,4.80
2018-07-17T02:26:19.952Z,5.53
2018-07-17T02:29:09.422Z,6.70
2018-07-17T02:31:42.496Z,7.83
2018-07-17T02:34:22.850Z,7.37
2018-07-17T02:37:01.811Z,8.23
2018-07-17T02:39:49.767Z,9.13
2018-07-17T02:42:23.224Z,8.07
2018-07-17T02:45:12.872Z,6.20
2018-07-17T02:47:57.546Z,7.17
2018-07-17T02:50:44.782Z,7.63
2018-07-17T02:53:22.100Z,7.70
2018-07-17T02:55:56.497Z,8.10
2018-07-17T02:58:42.582Z,8.37
2018-07-17T03:01:19.816Z,15.53
2018-07-17T03:03:54.374Z,17.43
2018-07-17T03:06:37.232Z,20.53
2018-07-17T03:28:14.926Z,20.07
2018-07-17T03:30:47.119Z,21.10
2018-07-17T03:33:19.810Z,24.33
2018-07-17T03:35:51.673Z,20.67
2018-07-17T03:38:24.113Z,22.03
2018-07-17T03:40:56.732Z,26.83
2018-07-17T03:43:30.287Z,29.60
2018-07-17T03:46:04.171Z,18.80
2018-07-17T03:48:35.875Z,19.50
2018-07-17T03:51:07.946Z,19.30
2018-07-17T03:53:39.833Z,18.57
2018-07-17T03:56:11.508Z,20.67
2018-07-17T03:58:43.323Z,19.30
2018-07-17T04:01:15.182Z,18.30
2018-07-17T04:03:47.817Z,18.97
2018-07-17T04:06:19.755Z,16.20
2018-07-17T04:08:51.566Z,17.37
2018-07-17T04:11:23.438Z,17.50
2018-07-17T04:13:54.631Z,17.10
2018-07-17T04:16:26.327Z,17.47
2018-07-17T04:18:58.125Z,16.03
2018-07-17T04:21:29.970Z,16.40
2018-07-17T04:24:01.825Z,16.07
2018-07-17T04:26:33.626Z,13.87
2018-07-17T04:29:05.706Z,15.43
2018-07-17T04:31:37.110Z,15.43
2018-07-17T04:34:08.363Z,14.10
2018-07-17T04:36:39.527Z,14.30
2018-07-17T04:39:13.197Z,18.87
2018-07-17T04:41:44.318Z,14.03
2018-07-17T04:44:16.231Z,13.67
2018-07-17T04:46:51.600Z,63.67
2018-07-17T04:49:23.668Z,49.87
2018-07-17T04:51:59.201Z,25.87
2018-07-17T04:54:31.910Z,25.03
2018-07-17T04:57:03.791Z,42.07
2018-07-17T04:59:38.819Z,11.87
2018-07-17T05:02:10.566Z,11.50
2018-07-17T05:04:41.871Z,10.47
2018-07-17T05:07:13.569Z,10.10
2018-07-17T05:09:45.581Z,9.60
2018-07-17T05:12:18.692Z,8.53
2018-07-17T05:14:50.393Z,9.27
2018-07-17T05:17:22.167Z,7.33
2018-07-17T05:19:54.906Z,6.63
2018-07-17T05:22:55.653Z,6.60
2018-07-17T05:26:11.190Z,6.80
2018-07-17T05:29:12.051Z,6.10
2018-07-17T05:32:07.050Z,5.50
2018-07-17T05:34:42.991Z,5.77
2018-07-17T05:37:14.806Z,6.67
2018-07-17T05:39:47.152Z,6.60
2018-07-17T05:42:19.378Z,6.50
2018-07-17T05:44:50.621Z,8.13
2018-07-17T05:47:22.360Z,7.83
2018-07-17T05:49:54.087Z,6.90
2018-07-17T05:52:25.936Z,6.20
2018-07-17T05:54:57.739Z,5.93
2018-07-17T05:57:29.475Z,5.10
2018-07-17T06:00:01.315Z,5.43
2018-07-17T06:02:33.170Z,5.10
2018-07-17T06:05:05.030Z,4.60
2018-07-17T06:07:37.152Z,6.17
2018-07-17T06:10:08.406Z,5.03
2018-07-17T06:12:40.003Z,4.90
2018-07-17T06:15:14.754Z,4.70
2018-07-17T06:17:47.759Z,4.60
2018-07-17T06:20:21.707Z,4.43
2018-07-17T06:22:53.450Z,4.43
2018-07-17T06:25:25.347Z,4.33
2018-07-17T06:27:57.429Z,3.47
2018-07-17T06:30:29.295Z,3.83
2018-07-17T06:33:01.146Z,2.87
2018-07-17T06:35:32.877Z,2.87
2018-07-17T06:38:04.726Z,2.53
2018-07-17T06:40:35.960Z,2.87
2018-07-17T06:43:08.667Z,3.30
2018-07-17T06:45:39.870Z,3.33
2018-07-17T06:48:11.465Z,3.40
2018-07-17T06:50:46.918Z,3.00
2018-07-17T06:53:19.414Z,2.87
2018-07-17T06:55:54.201Z,2.70
2018-07-17T06:58:39.944Z,2.73
2018-07-17T07:01:11.594Z,2.77
2018-07-17T07:03:45.471Z,3.40
2018-07-17T07:06:17.338Z,2.70
2018-07-17T07:08:49.047Z,3.10
2018-07-17T07:11:21.800Z,3.27
2018-07-17T07:13:53.714Z,3.40
2018-07-17T07:16:25.518Z,2.93
2018-07-17T07:18:57.490Z,3.17
2018-07-17T07:21:32.638Z,3.37
2018-07-17T07:24:04.674Z,3.20
2018-07-17T07:26:36.601Z,3.67
2018-07-17T07:29:09.862Z,3.47
2018-07-17T07:31:41.710Z,3.40
2018-07-17T07:34:14.452Z,3.80
2018-07-17T07:36:46.000Z,3.77
2018-07-17T07:39:18.304Z,3.63
2018-07-17T07:41:50.598Z,3.50
2018-07-17T07:44:22.236Z,3.70
2018-07-17T07:46:53.878Z,3.43
2018-07-17T07:49:25.967Z,3.53
2018-07-17T07:51:57.782Z,3.50
2018-07-17T07:54:29.510Z,3.20
2018-07-17T07:57:03.443Z,3.60
2018-07-17T07:59:35.323Z,3.60
2018-07-17T08:02:07.115Z,3.60
2018-07-17T08:04:39.234Z,3.47
2018-07-17T08:07:11.134Z,3.60
2018-07-17T08:09:43.061Z,3.50
2018-07-17T08:12:14.811Z,3.83
2018-07-17T08:14:46.753Z,3.50
2018-07-17T08:17:18.817Z,4.60
2018-07-17T08:19:50.564Z,3.30
2018-07-17T08:22:22.425Z,3.13
2018-07-17T08:24:54.195Z,3.70
2018-07-17T08:27:26.101Z,3.30
2018-07-17T08:29:57.354Z,3.30
2018-07-17T08:32:29.149Z,3.37
2018-07-17T08:35:01.962Z,3.17
2018-07-17T08:37:33.912Z,3.27
2018-07-17T08:40:05.921Z,3.13
2018-07-17T08:42:38.625Z,3.77
2018-07-17T08:45:10.494Z,3.30
2018-07-17T08:47:43.684Z,3.30
2018-07-17T08:50:21.119Z,3.77
2018-07-17T08:52:53.978Z,3.30
2018-07-17T08:55:25.843Z,3.60
2018-07-17T08:57:57.623Z,3.30
2018-07-17T09:00:29.533Z,3.67
2018-07-17T09:03:01.660Z,3.53
2018-07-17T09:05:35.892Z,3.43
2018-07-17T09:08:17.697Z,3.40
2018-07-17T09:10:48.851Z,3.77
2018-07-17T09:13:20.462Z,3.47
2018-07-17T09:15:57.546Z,3.33
2018-07-17T09:18:30.636Z,3.13
2018-07-17T09:21:02.556Z,3.40
2018-07-17T09:23:34.799Z,3.23
2018-07-17T09:26:06.165Z,3.60
2018-07-17T09:28:37.656Z,3.47
2018-07-17T09:31:09.482Z,3.50
2018-07-17T09:33:41.198Z,3.70
2018-07-17T09:36:13.069Z,3.50
2018-07-17T09:38:44.264Z,3.50
2018-07-17T09:41:31.994Z,3.30
2018-07-17T09:44:04.459Z,3.10
2018-07-17T09:46:35.620Z,3.37
2018-07-17T09:49:07.555Z,3.37
2018-07-17T09:51:40.076Z,3.87
2018-07-17T09:54:12.900Z,3.30
2018-07-17T09:56:47.832Z,3.43
2018-07-17T09:59:19.944Z,3.60
2018-07-17T10:01:56.537Z,3.93
2018-07-17T10:04:28.351Z,3.37
2018-07-17T10:07:00.250Z,3.90
2018-07-17T10:09:32.236Z,3.63
2018-07-17T10:12:03.977Z,3.50
2018-07-17T10:14:36.366Z,3.03
2018-07-17T10:17:08.271Z,3.63
2018-07-17T10:19:40.135Z,3.63
2018-07-17T10:22:11.890Z,3.93
2018-07-17T10:24:43.782Z,4.00
2018-07-17T10:27:16.323Z,3.80
2018-07-17T10:29:48.081Z,4.27
2018-07-17T10:32:20.001Z,3.77
2018-07-17T10:34:51.659Z,4.07
2018-07-17T10:37:23.730Z,4.13
2018-07-17T10:39:55.390Z,3.97
2018-07-17T10:42:27.255Z,3.80
2018-07-17T10:44:59.033Z,3.87
2018-07-17T10:47:30.853Z,3.83
2018-07-17T10:50:02.944Z,3.80
2018-07-17T10:57:02.232Z,3.63
2018-07-17T11:00:13.211Z,3.33
2018-07-17T11:03:03.576Z,3.63
2018-07-17T11:05:35.747Z,3.30
2018-07-17T11:08:07.638Z,3.27
2018-07-17T11:10:39.370Z,3.13
2018-07-17T11:13:11.218Z,3.33
2018-07-17T11:15:42.604Z,3.50
2018-07-17T11:18:14.176Z,3.30
2018-07-17T11:20:46.046Z,3.30
2018-07-17T11:23:18.419Z,3.33
2018-07-17T11:25:50.318Z,2.97
2018-07-17T11:28:22.091Z,3.00
2018-07-17T11:30:53.867Z,2.97
2018-07-17T11:33:25.699Z,3.10
2018-07-17T11:35:56.843Z,3.23
2018-07-17T11:38:28.561Z,3.40
2018-07-17T11:41:00.188Z,3.40
2018-07-17T11:43:31.892Z,3.40
2018-07-17T11:46:03.771Z,2.97
2018-07-17T11:48:35.120Z,3.30
2018-07-17T11:51:06.822Z,3.10
2018-07-17T11:53:38.640Z,3.37
2018-07-17T11:56:10.561Z,3.47
2018-07-17T11:58:42.446Z,2.87
2018-07-17T12:01:14.568Z,3.13
2018-07-17T12:04:11.999Z,3.30
2018-07-17T12:08:07.329Z,3.07
2018-07-17T12:14:27.049Z,3.60
2018-07-17T12:16:58.810Z,3.17
2018-07-17T12:19:33.902Z,3.27
2018-07-17T12:22:11.628Z,3.23
2018-07-17T12:24:43.454Z,3.30
2018-07-17T12:27:17.338Z,3.63
2018-07-17T12:29:49.220Z,3.10
2018-07-17T12:32:21.390Z,3.30
2018-07-17T12:34:52.690Z,3.30
2018-07-17T12:37:24.497Z,3.20
2018-07-17T12:39:57.423Z,3.23
2018-07-17T12:42:29.133Z,3.50
2018-07-17T12:45:01.005Z,3.63
2018-07-17T12:47:33.622Z,3.13
2018-07-17T12:50:05.860Z,4.07
2018-07-17T12:52:37.930Z,3.20
2018-07-17T12:55:15.145Z,3.30
2018-07-17T12:57:48.209Z,3.37
2018-07-17T13:00:24.252Z,3.80
2018-07-17T13:02:55.742Z,3.20
2018-07-17T13:05:27.376Z,3.40
2018-07-17T13:07:59.028Z,3.70
2018-07-17T13:10:30.548Z,3.60
2018-07-17T13:13:02.312Z,3.47
2018-07-17T13:15:33.902Z,3.40
2018-07-17T13:18:05.515Z,3.20
2018-07-17T13:20:37.134Z,3.50
2018-07-17T13:23:08.335Z,3.90
2018-07-17T13:25:39.863Z,3.40
2018-07-17T13:28:11.529Z,3.67
2018-07-17T13:30:43.223Z,3.80
2018-07-17T13:33:14.531Z,3.50
2018-07-17T13:35:46.086Z,3.40
2018-07-17T13:38:18.284Z,3.53
2018-07-17T13:40:50.121Z,3.37
2018-07-17T13:43:21.797Z,3.63
2018-07-17T13:45:53.547Z,3.63
2018-07-17T13:48:25.107Z,3.77
2018-07-17T13:50:57.135Z,3.63
2018-07-17T13:53:28.905Z,2.97
2018-07-17T13:56:00.708Z,3.33
2018-07-17T13:58:32.422Z,3.40
2018-07-17T14:01:04.137Z,3.50
2018-07-17T14:03:35.267Z,3.47
2018-07-17T14:06:07.108Z,3.20
2018-07-17T14:08:38.960Z,3.47
2018-07-17T14:11:10.835Z,3.60
2018-07-17T14:13:42.596Z,3.10
2018-07-17T14:16:14.277Z,3.77
2018-07-17T14:18:45.864Z,3.60
2018-07-17T14:21:18.836Z,3.50
2018-07-17T14:23:51.249Z,3.67
2018-07-17T14:26:23.462Z,3.33
2018-07-17T14:28:55.100Z,3.57
2018-07-17T14:31:26.717Z,3.50
2018-07-17T14:33:58.393Z,3.40
2018-07-17T14:36:30.172Z,4.10
2018-07-17T14:39:01.809Z,3.30
2018-07-17T14:41:33.497Z,3.90
2018-07-17T14:44:05.196Z,3.50
2018-07-17T14:46:36.409Z,3.50
2018-07-17T14:49:08.013Z,3.00
2018-07-17T14:51:39.717Z,3.50
2018-07-17T14:54:11.320Z,3.40
2018-07-17T14:56:43.034Z,3.03
2018-07-17T14:59:14.650Z,3.27
2018-07-17T15:01:46.785Z,3.03
2018-07-17T15:04:19.046Z,3.33
2018-07-17T15:06:50.865Z,3.60
2018-07-17T15:09:22.516Z,3.17
2018-07-17T15:11:54.227Z,3.20
2018-07-17T15:14:25.860Z,3.03
2018-07-17T15:16:57.618Z,3.20
2018-07-17T15:19:28.873Z,2.80
2018-07-17T15:22:00.431Z,3.20
2018-07-17T15:24:31.723Z,2.97
2018-07-17T15:27:03.356Z,2.97
2018-07-17T15:29:35.048Z,2.60
2018-07-17T15:34:43.128Z,2.90
2018-07-17T15:37:14.802Z,3.00
2018-07-17T15:39:46.565Z,2.83
2018-07-17T15:42:18.885Z,2.90
2018-07-17T15:44:50.476Z,2.83
2018-07-17T15:47:21.603Z,3.07
2018-07-17T15:49:53.489Z,2.80
2018-07-17T15:52:25.649Z,2.43
2018-07-17T15:54:58.028Z,3.47
2018-07-17T15:57:30.632Z,2.50
2018-07-17T16:00:02.392Z,3.10
2018-07-17T16:02:34.295Z,2.93
2018-07-17T16:05:05.983Z,2.80
2018-07-17T16:07:38.316Z,2.37
2018-07-17T16:10:10.007Z,2.77
2018-07-17T16:12:41.911Z,2.90
2018-07-17T16:15:16.651Z,2.60
2018-07-17T16:17:48.494Z,2.40
2018-07-17T16:20:22.433Z,2.60
2018-07-17T16:22:54.431Z,4.03
2018-07-17T16:25:26.340Z,2.60
2018-07-17T16:27:58.584Z,2.67
2018-07-17T16:30:30.224Z,2.40
2018-07-17T16:33:02.212Z,2.67
2018-07-17T16:35:33.602Z,2.37
2018-07-17T16:38:05.297Z,2.73
2018-07-17T16:40:37.067Z,2.47
2018-07-17T16:43:08.753Z,2.80
2018-07-17T16:45:40.568Z,2.60
2018-07-17T16:48:12.266Z,2.60
2018-07-17T16:50:44.242Z,2.70
2018-07-17T16:53:16.085Z,3.03
2018-07-17T16:55:48.231Z,2.50
2018-07-17T16:58:20.817Z,3.03
2018-07-17T17:00:52.786Z,2.60
2018-07-17T17:03:25.329Z,3.30
2018-07-17T17:05:57.331Z,2.63
2018-07-17T17:08:29.370Z,2.83
2018-07-17T17:11:03.764Z,2.40
2018-07-17T17:13:35.700Z,2.77
2018-07-17T17:16:07.776Z,2.43
2018-07-17T17:18:39.762Z,2.47
2018-07-17T17:21:11.277Z,2.30
2018-07-17T17:23:43.110Z,2.30
2018-07-17T17:26:14.955Z,2.50
2018-07-17T17:28:46.830Z,2.20
2018-07-17T17:31:19.299Z,2.40
2018-07-17T17:33:51.208Z,2.53
2018-07-17T17:36:26.265Z,2.57
2018-07-17T17:38:58.035Z,2.70
2018-07-17T17:41:30.016Z,2.40
2018-07-17T17:44:02.954Z,2.60
2018-07-17T17:46:34.597Z,2.77
2018-07-17T17:49:06.585Z,2.50
2018-07-17T17:51:39.373Z,2.90
2018-07-17T17:54:11.333Z,2.30
2018-07-17T17:56:43.117Z,2.70
2018-07-17T17:59:20.064Z,2.43
2018-07-17T18:01:55.491Z,2.43
2018-07-17T18:04:27.183Z,2.70
2018-07-17T18:06:59.787Z,2.83
2018-07-17T18:09:31.600Z,2.70
2018-07-17T18:12:04.384Z,2.30
2018-07-17T18:14:36.281Z,2.43
2018-07-17T18:17:09.145Z,3.30
2018-07-17T18:19:43.117Z,2.90
2018-07-17T18:22:14.964Z,2.40
2018-07-17T18:24:46.881Z,2.90
2018-07-17T18:27:19.044Z,3.53
2018-07-17T18:29:50.805Z,3.07
2018-07-17T18:32:24.008Z,2.80
2018-07-17T18:34:55.913Z,3.03
2018-07-17T18:37:27.888Z,2.90
2018-07-17T18:39:59.669Z,2.50
2018-07-17T18:42:33.398Z,3.20
2018-07-17T18:45:05.729Z,2.80
2018-07-17T18:47:37.572Z,2.90
2018-07-17T18:50:12.859Z,2.80
2018-07-17T18:52:42.305Z,2.70
2018-07-17T18:55:15.452Z,3.20
2018-07-17T18:57:47.997Z,2.70
2018-07-17T19:00:20.487Z,2.70
2018-07-17T19:02:52.104Z,3.00
2018-07-17T19:05:24.472Z,2.73
2018-07-17T19:07:55.646Z,2.60
2018-07-17T19:10:28.506Z,2.67
2018-07-17T19:12:59.591Z,4.70
2018-07-17T19:15:31.161Z,3.20
2018-07-17T19:18:02.820Z,3.07
2018-07-17T19:20:34.640Z,2.87
2018-07-17T19:23:06.424Z,3.23
2018-07-17T19:25:38.205Z,3.00
2018-07-17T19:28:09.973Z,2.97
2018-07-17T19:30:41.697Z,2.83
2018-07-17T19:33:13.849Z,3.00
2018-07-17T19:35:45.666Z,2.90
2018-07-17T19:38:17.794Z,2.80
2018-07-17T19:40:54.901Z,2.80
2018-07-17T19:43:26.467Z,2.70
2018-07-17T19:45:58.669Z,2.87
2018-07-17T19:48:30.469Z,3.10
2018-07-17T19:51:02.339Z,3.03
2018-07-17T19:53:34.223Z,2.77
2018-07-17T19:56:05.798Z,3.07
2018-07-17T19:58:37.375Z,3.33
2018-07-17T20:01:09.790Z,2.90
2018-07-17T20:03:41.715Z,2.90
2018-07-17T20:06:13.603Z,3.37
2018-07-17T20:08:45.236Z,4.30
2018-07-17T20:11:19.889Z,3.60
2018-07-17T20:13:51.904Z,3.17
2018-07-17T20:16:24.284Z,3.60
2018-07-17T20:18:56.220Z,3.70
2018-07-17T20:21:28.419Z,4.27
2018-07-17T20:23:59.488Z,3.37
2018-07-17T20:26:31.598Z,3.67
2018-07-17T20:29:03.709Z,3.57
2018-07-17T20:31:36.185Z,3.60
2018-07-17T20:34:52.813Z,3.83
2018-07-17T20:37:28.919Z,4.23
2018-07-17T20:40:00.245Z,4.00
2018-07-17T20:42:33.913Z,3.90
2018-07-17T20:45:06.028Z,4.17
2018-07-17T20:47:37.687Z,3.97
2018-07-17T20:50:10.208Z,4.00
2018-07-17T20:52:42.803Z,4.33
2018-07-17T20:55:18.414Z,3.93
2018-07-17T20:57:50.200Z,4.20
2018-07-17T21:00:23.823Z,3.97
2018-07-17T21:02:55.569Z,3.63
2018-07-17T21:05:27.380Z,3.73
2018-07-17T21:07:58.669Z,3.47
2018-07-17T21:10:35.677Z,3.53
2018-07-17T21:13:07.457Z,3.73
2018-07-17T21:15:39.107Z,3.40
2018-07-17T21:18:10.883Z,3.50
2018-07-17T21:20:42.086Z,3.60
2018-07-17T21:23:13.692Z,3.40
2018-07-17T21:26:01.460Z,3.90
2018-07-17T21:28:33.920Z,3.17
2018-07-17T21:31:05.701Z,4.57
2018-07-17T21:33:37.610Z,3.60
2018-07-17T21:36:10.387Z,3.60
2018-07-17T21:38:41.793Z,4.30
2018-07-17T21:41:14.127Z,4.13
2018-07-17T21:43:45.857Z,3.73
2018-07-17T21:46:18.607Z,4.17
2018-07-17T21:48:50.783Z,4.20
2018-07-17T21:51:22.660Z,4.47
2018-07-17T21:53:54.410Z,4.07
2018-07-17T21:56:26.138Z,4.03
2018-07-17T21:58:58.150Z,4.20
2018-07-17T22:01:30.008Z,4.20
2018-07-17T22:04:22.603Z,3.80
2018-07-17T22:06:54.922Z,3.87
2018-07-17T22:09:26.785Z,3.70
2018-07-17T22:11:58.803Z,4.33
2018-07-17T22:14:30.677Z,4.10
2018-07-17T22:17:03.029Z,4.20
2018-07-17T22:19:35.481Z,4.27
2018-07-17T22:22:07.286Z,4.10
2018-07-17T22:24:39.103Z,3.97
2018-07-17T22:27:10.253Z,4.67
2018-07-17T22:29:41.896Z,3.80
2018-07-17T22:32:15.450Z,3.90
2018-07-17T22:34:48.103Z,4.57
2018-07-17T22:37:20.788Z,4.40
2018-07-17T22:39:52.541Z,4.73
2018-07-17T22:42:24.609Z,4.10
2018-07-17T22:44:56.485Z,4.73
2018-07-17T22:47:30.016Z,4.10
2018-07-17T22:50:04.787Z,4.50
2018-07-17T22:52:36.352Z,4.27
2018-07-17T22:55:08.242Z,4.47
2018-07-17T22:57:40.685Z,4.20
2018-07-17T23:00:12.653Z,4.43
2018-07-17T23:02:44.319Z,4.70
2018-07-17T23:05:21.392Z,4.47
2018-07-17T23:07:53.224Z,4.23
2018-07-17T23:10:25.202Z,4.80
2018-07-17T23:12:56.458Z,4.37
2018-07-17T23:15:27.749Z,4.53
2018-07-17T23:17:59.253Z,4.50
2018-07-17T23:20:30.499Z,4.90
2018-07-17T23:23:02.230Z,4.57
2018-07-17T23:25:34.491Z,4.67
2018-07-17T23:28:07.597Z,4.90
2018-07-17T23:34:50.701Z,4.83
2018-07-17T23:37:22.710Z,5.07
2018-07-17T23:39:54.566Z,5.00
2018-07-17T23:42:28.528Z,4.77
2018-07-17T23:45:00.724Z,4.63
2018-07-17T23:47:32.542Z,4.27
2018-07-17T23:50:04.593Z,4.40
2018-07-17T23:53:16.560Z,4.10
2018-07-17T23:55:48.563Z,5.20
2018-07-17T23:58:20.603Z,4.80
